Time;durP1;ratioP1;P1;durP2;ratioP2;P2;SDS_P1;SDS_P2;PMS_P1;PMS_P2;Temp;Humidity;BMP_temperature;BMP_pressure;BME280_temperature;BME280_humidity;BME280_pressure;Samples;Min_cycle;Max_cycle;Signal;HPM_P1;HPM_P2
2020/12/07 00:01:00;;;;;;;;;;;;;;;21.50;27.62;98162.06;5081227;28;1971;-76
2020/12/07 00:03:25;;;;;;;;;;;;;;;21.23;27.77;98165.06;5096736;28;669;-77
2020/12/07 00:05:50;;;;;;;;;;;;;;;21.58;27.52;98169.16;5081186;28;1500;-76
2020/12/07 00:08:16;;;;;;;;;;;;;;;21.77;27.76;98164.66;5080160;28;1536;-76
2020/12/07 00:10:41;;;;;;;;;;;;;;;22.35;26.67;98165.59;5080884;28;816;-76
2020/12/07 00:13:07;;;;;;;;;;;;;;;22.76;25.80;98161.22;5080407;28;921;-77
2020/12/07 00:15:32;;;;;;;;;;;;;;;22.66;26.13;98167.19;5081061;28;651;-76
2020/12/07 00:18:01;;;;;;;;;;;;;;;22.76;25.79;98166.88;5080191;28;1595;-77
2020/12/07 00:20:26;;;;;;;;;;;;;;;22.23;26.49;98172.00;5080617;28;1495;-77
2020/12/07 00:22:52;;;;;;;;;;;;;;;21.62;27.42;98172.69;5096570;28;1905;-76
2020/12/07 00:25:17;;;;;;;;;;;;;;;20.97;28.05;98169.69;5080897;28;855;-76
2020/12/07 00:27:42;;;;;;;;;;;;;;;21.46;27.88;98172.69;5080821;28;1933;-76
2020/12/07 00:30:08;;;;;;;;;;;;;;;22.19;26.76;98176.16;5080469;28;681;-76
2020/12/07 00:32:34;;;;;;;;;;;;;;;22.60;26.15;98166.94;5080816;28;599;-76
2020/12/07 00:34:59;;;;;;;;;;;;;;;22.47;26.21;98161.22;5080416;28;654;-76
2020/12/07 00:37:24;;;;;;;;;;;;;;;22.20;26.21;98164.38;5063863;28;1531;-77
2020/12/07 00:39:50;;;;;;;;;;;;;;;21.73;27.29;98156.25;5077863;28;1647;-76
2020/12/07 00:42:16;;;;;;;;;;;;;;;21.54;27.47;98154.28;5080259;28;1968;-77
2020/12/07 00:44:41;;;;;;;;;;;;;;;21.76;27.64;98158.19;5063243;28;941;-76
2020/12/07 00:47:07;;;;;;;;;;;;;;;22.21;26.57;98154.63;5063426;28;1005;-76
2020/12/07 00:49:33;;;;;;;;;;;;;;;22.34;26.49;98166.06;5079262;28;1528;-75
2020/12/07 00:51:59;;;;;;;;;;;;;;;22.77;25.91;98162.81;5079787;28;1304;-75
2020/12/07 00:54:25;;;;;;;;;;;;;;;22.34;26.36;98158.34;5080087;28;780;-76
2020/12/07 00:56:54;;;;;;;;;;;;;;;21.71;27.17;98161.56;5096183;28;1440;-77
2020/12/07 00:59:22;;;;;;;;;;;;;;;21.74;26.88;98154.19;5096517;28;1249;-75
2020/12/07 01:01:49;;;;;;;;;;;;;;;21.50;27.60;98150.72;5079901;28;1917;-76
2020/12/07 01:04:14;;;;;;;;;;;;;;;21.69;27.48;98152.69;5062836;28;1242;-76
2020/12/07 01:06:40;;;;;;;;;;;;;;;22.19;26.78;98162.78;5079596;28;1481;-76
2020/12/07 01:09:05;;;;;;;;;;;;;;;22.41;26.63;98159.38;5079845;28;1488;-76
2020/12/07 01:11:35;;;;;;;;;;;;;;;22.42;26.51;98146.78;5065327;28;1167;-75
2020/12/07 01:14:00;;;;;;;;;;;;;;;22.65;26.00;98152.22;5066737;28;1287;-77
2020/12/07 01:16:26;;;;;;;;;;;;;;;21.90;27.12;98145.69;5083382;28;1538;-76
2020/12/07 01:18:52;;;;;;;;;;;;;;;21.15;28.09;98147.47;5095722;28;1531;-76
2020/12/07 01:21:19;;;;;;;;;;;;;;;21.24;28.33;98141.19;5083756;28;1894;-76
2020/12/07 01:23:45;;;;;;;;;;;;;;;22.07;27.15;98143.63;5099335;28;1443;-76
2020/12/07 01:26:12;;;;;;;;;;;;;;;22.33;26.85;98142.56;5100184;28;1186;-76
2020/12/07 01:28:38;;;;;;;;;;;;;;;22.64;26.07;98136.47;5098284;28;1582;-76
2020/12/07 01:31:04;;;;;;;;;;;;;;;22.81;25.81;98146.47;5100067;28;1175;-76
2020/12/07 01:33:31;;;;;;;;;;;;;;;22.22;26.34;98139.22;5099661;28;1331;-76
2020/12/07 01:35:56;;;;;;;;;;;;;;;21.78;26.96;98140.75;5083586;28;925;-76
2020/12/07 01:38:22;;;;;;;;;;;;;;;21.08;27.88;98136.28;5097422;28;1587;-76
2020/12/07 01:40:49;;;;;;;;;;;;;;;21.83;27.42;98141.00;5099876;28;1280;-77
2020/12/07 01:43:16;;;;;;;;;;;;;;;22.30;26.68;98129.28;5065785;28;1983;-76
2020/12/07 01:45:42;;;;;;;;;;;;;;;22.60;26.24;98128.03;5066447;28;1170;-76
2020/12/07 01:48:09;;;;;;;;;;;;;;;22.83;25.74;98132.63;5097782;28;1540;-76
2020/12/07 01:50:35;;;;;;;;;;;;;;;22.46;26.33;98131.28;5082749;28;1453;-76
2020/12/07 01:53:01;;;;;;;;;;;;;;;21.87;26.82;98123.94;5065397;28;1214;-76
2020/12/07 01:55:26;;;;;;;;;;;;;;;21.71;27.13;98127.56;5065538;28;1660;-77
2020/12/07 01:57:56;;;;;;;;;;;;;;;21.40;27.73;98123.47;5099618;28;1192;-77
2020/12/07 02:00:23;;;;;;;;;;;;;;;21.97;27.51;98116.41;5099551;28;1199;-76
2020/12/07 02:03:09;;;;;;;;;;;;;;;22.42;26.62;98113.56;5079649;28;1971;-76
2020/12/07 02:05:38;;;;;;;;;;;;;;;22.64;26.26;98113.78;5099195;28;1497;-76
2020/12/07 02:08:13;;;;;;;;;;;;;;;22.63;26.20;98123.50;5045327;28;1276;-76
2020/12/07 02:10:44;;;;;;;;;;;;;;;22.11;26.82;98121.69;5045519;28;1199;-76
2020/12/07 02:13:13;;;;;;;;;;;;;;;21.72;27.41;98122.72;5078887;28;1301;-76
2020/12/07 02:15:39;;;;;;;;;;;;;;;21.49;27.57;98120.81;5045770;28;1204;-76
2020/12/07 02:18:05;;;;;;;;;;;;;;;21.95;27.48;98118.88;5079501;28;1544;-76
2020/12/07 02:20:31;;;;;;;;;;;;;;;22.28;26.81;98120.44;5065475;28;1485;-76
2020/12/07 02:22:59;;;;;;;;;;;;;;;22.40;26.97;98109.59;5064796;28;1890;-76
2020/12/07 02:25:29;;;;;;;;;;;;;;;22.77;26.06;98110.94;5081414;28;1448;-76
2020/12/07 02:27:55;;;;;;;;;;;;;;;22.50;26.22;98109.28;5064690;28;1623;-75
2020/12/07 02:30:23;;;;;;;;;;;;;;;21.85;27.21;98115.06;5065295;28;1364;-76
2020/12/07 02:32:50;;;;;;;;;;;;;;;21.52;27.56;98117.91;5081852;28;1302;-76
2020/12/07 02:35:22;;;;;;;;;;;;;;;21.54;27.76;98106.16;5082078;28;857;-76
2020/12/07 02:37:49;;;;;;;;;;;;;;;22.06;27.41;98099.53;5096551;28;1483;-76
2020/12/07 02:40:18;;;;;;;;;;;;;;;22.49;26.62;98101.25;5082394;28;634;-76
2020/12/07 02:42:44;;;;;;;;;;;;;;;22.55;26.51;98099.44;5082334;28;1898;-76
2020/12/07 02:45:15;;;;;;;;;;;;;;;22.62;26.35;98102.84;5064737;28;1309;-76
2020/12/07 02:47:46;;;;;;;;;;;;;;;22.00;27.15;98098.50;5064628;28;1497;-75
2020/12/07 02:50:12;;;;;;;;;;;;;;;21.66;27.21;98105.44;5096743;28;1342;-76
2020/12/07 02:52:39;;;;;;;;;;;;;;;21.46;28.10;98105.53;5064789;28;1295;-76
2020/12/07 02:55:05;;;;;;;;;;;;;;;22.10;27.24;98097.41;5098324;28;1229;-77
2020/12/07 02:57:32;;;;;;;;;;;;;;;22.43;26.55;98088.84;5064667;28;1302;-76
2020/12/07 02:59:58;;;;;;;;;;;;;;;22.78;25.94;98090.63;5064477;28;1257;-76
2020/12/07 03:02:27;;;;;;;;;;;;;;;22.76;26.11;98095.97;5064920;28;1879;-76
2020/12/07 03:04:54;;;;;;;;;;;;;;;21.61;27.53;98091.81;5064223;28;1139;-76
2020/12/07 03:07:20;;;;;;;;;;;;;;;20.96;28.41;98086.06;5064139;28;1540;-76
2020/12/07 03:09:50;;;;;;;;;;;;;;;21.34;27.76;98080.75;5064387;28;960;-76
2020/12/07 03:12:16;;;;;;;;;;;;;;;21.74;27.93;98081.34;5064945;28;1186;-76
2020/12/07 03:14:42;;;;;;;;;;;;;;;22.19;27.11;98083.44;5081676;28;626;-76
2020/12/07 03:17:07;;;;;;;;;;;;;;;22.36;26.82;98084.97;5064154;28;1548;-76
2020/12/07 03:19:33;;;;;;;;;;;;;;;22.66;26.10;98094.25;5080482;28;1548;-76
2020/12/07 03:21:59;;;;;;;;;;;;;;;22.68;26.01;98097.41;5063838;28;1902;-76
2020/12/07 03:24:25;;;;;;;;;;;;;;;22.56;26.23;98096.16;5064035;28;1270;-76
2020/12/07 03:26:53;;;;;;;;;;;;;;;21.96;27.12;98086.47;5063892;28;1612;-76
2020/12/07 03:29:22;;;;;;;;;;;;;;;21.64;27.40;98099.41;5097582;28;1330;-76
2020/12/07 03:31:49;;;;;;;;;;;;;;;21.61;27.56;98100.31;5097840;28;1296;-76
2020/12/07 03:34:17;;;;;;;;;;;;;;;22.21;26.92;98097.16;5096443;28;1150;-76
2020/12/07 03:36:44;;;;;;;;;;;;;;;22.25;26.65;98097.84;5088211;28;1385;-76
2020/12/07 03:39:11;;;;;;;;;;;;;;;22.54;26.09;98103.53;5066833;28;1503;-76
2020/12/07 03:41:43;;;;;;;;;;;;;;;21.72;27.26;98106.50;5063903;28;1969;-76
2020/12/07 03:44:09;;;;;;;;;;;;;;;21.64;27.20;98105.09;5063363;28;1365;-77
2020/12/07 03:46:38;;;;;;;;;;;;;;;21.63;27.18;98102.69;5063566;28;1552;-76
2020/12/07 03:49:04;;;;;;;;;;;;;;;21.79;27.43;98103.47;5079579;28;1535;-76
2020/12/07 03:51:29;;;;;;;;;;;;;;;22.13;26.92;98090.91;5043379;28;1239;-75
2020/12/07 03:53:55;;;;;;;;;;;;;;;22.38;26.14;98090.19;5043269;28;1238;-75
2020/12/07 03:56:21;;;;;;;;;;;;;;;22.66;25.80;98087.78;5077979;28;1558;-75
2020/12/07 03:58:47;;;;;;;;;;;;;;;22.60;25.98;98104.56;5077096;28;1168;-76
2020/12/07 04:01:15;;;;;;;;;;;;;;;21.59;27.11;98100.75;5043538;28;1914;-76
2020/12/07 04:03:47;;;;;;;;;;;;;;;21.46;27.20;98090.59;5076548;28;1220;-76
2020/12/07 04:06:23;;;;;;;;;;;;;;;21.59;27.86;98097.13;5045888;28;1512;-73
2020/12/07 04:08:49;;;;;;;;;;;;;;;22.09;26.56;98107.16;5062908;28;1473;-76
2020/12/07 04:11:15;;;;;;;;;;;;;;;22.23;26.51;98097.53;5080862;28;658;-77
2020/12/07 04:13:40;;;;;;;;;;;;;;;22.57;26.09;98102.63;5080488;28;680;-75
2020/12/07 04:16:06;;;;;;;;;;;;;;;22.40;25.69;98092.59;5080869;28;702;-75
2020/12/07 04:18:31;;;;;;;;;;;;;;;21.71;26.79;98099.25;5079487;28;1449;-77
2020/12/07 04:21:02;;;;;;;;;;;;;;;21.67;26.74;98104.22;5080427;28;1690;-76
2020/12/07 04:23:28;;;;;;;;;;;;;;;21.66;27.69;98101.78;5080210;28;1874;-75
2020/12/07 04:25:54;;;;;;;;;;;;;;;22.00;26.74;98104.16;5080770;28;700;-75
2020/12/07 04:28:20;;;;;;;;;;;;;;;22.44;26.08;98099.75;5080027;28;1512;-75
2020/12/07 04:30:45;;;;;;;;;;;;;;;22.39;25.89;98108.00;5080793;28;1531;-76
2020/12/07 04:33:11;;;;;;;;;;;;;;;22.11;26.13;98107.53;5080061;28;944;-76
2020/12/07 04:35:36;;;;;;;;;;;;;;;21.62;27.04;98104.75;5080387;28;931;-76
2020/12/07 04:38:02;;;;;;;;;;;;;;;21.52;27.19;98114.28;5096724;28;1110;-76
2020/12/07 04:40:28;;;;;;;;;;;;;;;21.67;27.01;98104.22;5080322;28;1520;-77
2020/12/07 04:42:53;;;;;;;;;;;;;;;21.99;26.81;98108.25;5080225;28;1957;-76
2020/12/07 04:45:19;;;;;;;;;;;;;;;22.23;26.53;98103.97;5065187;28;650;-76
2020/12/07 04:47:44;;;;;;;;;;;;;;;22.43;25.98;98094.50;5084315;28;1109;-76
2020/12/07 04:50:10;;;;;;;;;;;;;;;22.46;26.09;98108.59;5066494;28;1563;-76
2020/12/07 04:52:35;;;;;;;;;;;;;;;20.45;25.95;97825.50;5050108;28;1607;-76
2020/12/07 04:55:01;;;;;;;;;;;;;;;21.00;28.00;98106.59;5100543;28;618;-76
2020/12/07 04:57:27;;;;;;;;;;;;;;;21.60;26.82;98098.69;5084448;28;685;-76
2020/12/07 04:59:52;;;;;;;;;;;;;;;21.45;27.62;98094.63;5099322;28;1543;-76
2020/12/07 05:02:18;;;;;;;;;;;;;;;21.90;26.83;98099.56;5084081;28;1962;-75
2020/12/07 05:04:43;;;;;;;;;;;;;;;22.55;25.90;98099.44;5083913;28;704;-75
2020/12/07 05:07:09;;;;;;;;;;;;;;;22.39;26.29;98096.66;5084024;28;1034;-76
2020/12/07 05:09:36;;;;;;;;;;;;;;;22.28;25.95;98094.94;5083504;28;881;-75
2020/12/07 05:12:04;;;;;;;;;;;;;;;21.75;26.60;98090.66;5083412;28;898;-74
2020/12/07 05:14:31;;;;;;;;;;;;;;;21.62;26.94;98101.91;5083641;28;650;-76
2020/12/07 05:16:56;;;;;;;;;;;;;;;21.50;27.59;98094.94;5083992;28;645;-76
2020/12/07 05:19:22;;;;;;;;;;;;;;;21.59;27.40;98095.09;5083492;28;691;-75
2020/12/07 05:21:47;;;;;;;;;;;;;;;21.36;27.71;98088.81;5099097;28;1949;-75
2020/12/07 05:24:13;;;;;;;;;;;;;;;21.29;27.98;98073.53;5083254;28;847;-75
2020/12/07 05:26:38;;;;;;;;;;;;;;;21.26;27.60;98074.44;5083232;28;1019;-75
2020/12/07 05:29:11;;;;;;;;;;;;;;;21.33;27.51;98084.81;5082762;28;1257;-73
2020/12/07 05:31:36;;;;;;;;;;;;;;;21.37;27.67;98090.41;5083144;28;1256;-73
2020/12/07 05:34:03;;;;;;;;;;;;;;;22.06;26.60;98080.50;5080029;28;1040;-75
2020/12/07 05:36:29;;;;;;;;;;;;;;;22.35;26.08;98080.53;5082534;28;1201;-73
2020/12/07 05:38:54;;;;;;;;;;;;;;;22.42;25.98;98078.75;5082361;28;1146;-76
2020/12/07 05:41:23;;;;;;;;;;;;;;;22.62;25.71;98082.22;5082780;28;1972;-75
2020/12/07 05:43:51;;;;;;;;;;;;;;;21.96;26.33;98081.59;5082579;28;1199;-73
2020/12/07 05:46:17;;;;;;;;;;;;;;;21.62;26.84;98076.44;5082957;28;1150;-74
2020/12/07 05:48:43;;;;;;;;;;;;;;;21.59;27.02;98074.47;5082222;28;1201;-75
2020/12/07 05:51:09;;;;;;;;;;;;;;;22.06;26.70;98085.38;5081999;28;1171;-76
2020/12/07 05:53:35;;;;;;;;;;;;;;;22.23;26.35;98077.69;5064452;28;1083;-75
2020/12/07 05:56:01;;;;;;;;;;;;;;;22.61;25.57;98080.63;5064653;28;1256;-76
2020/12/07 05:58:27;;;;;;;;;;;;;;;22.70;25.37;98080.75;5082224;28;1293;-75
2020/12/07 06:00:52;;;;;;;;;;;;;;;21.16;27.69;98086.00;5065459;28;666;-74
2020/12/07 06:03:18;;;;;;;;;;;;;;;21.66;26.72;98068.63;5064814;28;1910;-75
2020/12/07 06:05:46;;;;;;;;;;;;;;;21.43;27.11;98075.28;5081924;28;1237;-75
2020/12/07 06:08:22;;;;;;;;;;;;;;;22.01;26.38;98075.38;5079267;28;1124;-75
2020/12/07 06:10:50;;;;;;;;;;;;;;;22.45;25.86;98077.88;5064765;28;1336;-74
2020/12/07 06:13:25;;;;;;;;;;;;;;;22.59;25.55;98071.78;5081947;28;1162;-75
2020/12/07 06:15:51;;;;;;;;;;;;;;;22.56;25.43;98067.78;5064457;28;1293;-76
2020/12/07 06:18:32;;;;;;;;;;;;;;;22.33;25.54;98068.88;5082002;28;1174;-75
2020/12/07 06:21:00;;;;;;;;;;;;;;;21.79;26.24;98065.88;5080123;28;1191;-74
2020/12/07 06:23:30;;;;;;;;;;;;;;;21.39;26.96;98065.28;5081314;28;1902;-75
2020/12/07 06:25:57;;;;;;;;;;;;;;;21.57;27.03;98065.63;5079954;28;1167;-74
2020/12/07 06:28:25;;;;;;;;;;;;;;;22.16;26.30;98058.81;5064261;28;1250;-74
2020/12/07 06:30:51;;;;;;;;;;;;;;;22.57;25.66;98052.34;5081838;28;1388;-75
2020/12/07 06:33:16;;;;;;;;;;;;;;;22.67;25.23;98050.44;5081633;28;1225;-76
2020/12/07 06:35:43;;;;;;;;;;;;;;;22.12;25.97;98052.44;5081477;28;1142;-74
2020/12/07 06:38:08;;;;;;;;;;;;;;;21.44;27.30;98050.59;5081252;28;1260;-75
2020/12/07 06:40:34;;;;;;;;;;;;;;;21.62;26.96;98044.47;5081790;28;1194;-75
2020/12/07 06:43:00;;;;;;;;;;;;;;;21.79;26.81;98049.66;5064050;28;1977;-74
2020/12/07 06:45:30;;;;;;;;;;;;;;;22.30;26.07;98043.44;5063863;28;1249;-73
2020/12/07 06:47:55;;;;;;;;;;;;;;;22.51;25.85;98053.38;5081173;28;1240;-74
2020/12/07 06:50:26;;;;;;;;;;;;;;;22.57;25.83;98058.03;5080718;28;1181;-73
2020/12/07 06:52:52;;;;;;;;;;;;;;;22.20;25.91;98051.00;5081110;28;1194;-74
2020/12/07 06:55:17;;;;;;;;;;;;;;;21.68;26.78;98052.00;5081130;28;1348;-74
2020/12/07 06:57:43;;;;;;;;;;;;;;;20.85;27.98;98043.88;5081012;28;1134;-74
2020/12/07 07:00:12;;;;;;;;;;;;;;;21.70;27.15;98055.16;5080973;28;1333;-74
2020/12/07 07:02:41;;;;;;;;;;;;;;;22.16;26.56;98055.19;5080874;28;1902;-74
2020/12/07 07:05:07;;;;;;;;;;;;;;;22.48;25.82;98062.75;5080903;28;1186;-75
2020/12/07 07:07:32;;;;;;;;;;;;;;;22.65;25.59;98067.13;5080614;28;1208;-74
2020/12/07 07:09:59;;;;;;;;;;;;;;;22.73;25.46;98060.00;5080596;28;1209;-73
2020/12/07 07:12:24;;;;;;;;;;;;;;;22.72;25.63;98051.94;5080763;28;1162;-74
2020/12/07 07:14:53;;;;;;;;;;;;;;;22.67;25.29;98061.81;5081044;28;1206;-74
2020/12/07 07:17:37;;;;;;;;;;;;;;;22.17;25.92;98056.78;5077912;28;1086;-73
2020/12/07 07:20:03;;;;;;;;;;;;;;;21.42;26.71;98053.06;5078511;28;1100;-75
2020/12/07 07:22:29;;;;;;;;;;;;;;;21.49;27.02;98052.88;5080246;28;1906;-74
2020/12/07 07:30:19;;;;;;;;;;;;;;;22.70;25.32;98060.91;5077833;28;1158;-74
2020/12/07 07:32:48;;;;;;;;;;;;;;;21.81;26.34;98064.19;5080342;28;1146;-74
2020/12/07 07:35:13;;;;;;;;;;;;;;;21.57;26.49;98065.63;5079959;28;1193;-73
2020/12/07 07:37:39;;;;;;;;;;;;;;;21.60;26.76;98064.72;5077419;28;1107;-76
2020/12/07 07:40:05;;;;;;;;;;;;;;;21.92;26.53;98058.25;5080802;28;1064;-75
2020/12/07 07:42:32;;;;;;;;;;;;;;;22.48;25.81;98060.72;5064156;28;1906;-76
2020/12/07 07:44:57;;;;;;;;;;;;;;;22.69;25.60;98065.00;5063830;28;894;-76
2020/12/07 07:47:29;;;;;;;;;;;;;;;22.77;25.30;98060.69;5080762;28;993;-74
2020/12/07 07:50:24;;;;;;;;;;;;;;;21.77;26.43;98060.66;5063916;28;946;-75
2020/12/07 07:53:17;;;;;;;;;;;;;;;21.76;26.39;98044.91;5080093;28;1296;-76
2020/12/07 08:17:27;;;;;;;;;;;;;;;21.93;26.60;98044.88;5079542;28;1095;-76
2020/12/07 08:20:12;;;;;;;;;;;;;;;22.40;25.69;98047.22;5079486;28;1194;-75
2020/12/07 08:22:38;;;;;;;;;;;;;;;22.62;25.56;98043.28;5077701;28;1906;-75
2020/12/07 08:25:06;;;;;;;;;;;;;;;22.33;25.86;98046.19;5079592;28;1252;-74
2020/12/07 08:27:38;;;;;;;;;;;;;;;21.82;26.36;98037.47;5079636;28;1296;-73
2020/12/07 08:30:06;;;;;;;;;;;;;;;21.55;26.54;98036.94;5079867;28;1165;-73
2020/12/07 08:32:32;;;;;;;;;;;;;;;21.93;26.61;98036.38;5079682;28;1253;-74
2020/12/07 08:34:58;;;;;;;;;;;;;;;22.36;25.97;98039.59;5079595;28;1186;-74
2020/12/07 08:37:24;;;;;;;;;;;;;;;22.51;25.66;98031.47;5079173;28;1162;-73
2020/12/07 08:39:50;;;;;;;;;;;;;;;22.49;25.73;98027.53;5079115;28;1245;-73
2020/12/07 08:42:15;;;;;;;;;;;;;;;22.82;25.14;98022.44;5079457;28;1902;-73
2020/12/07 08:44:41;;;;;;;;;;;;;;;22.12;25.77;98023.31;5061914;28;1167;-74
2020/12/07 08:47:07;;;;;;;;;;;;;;;21.71;26.57;98021.97;5079423;28;1225;-74
2020/12/07 08:49:33;;;;;;;;;;;;;;;21.00;27.72;98011.22;5059229;28;1111;-74
2020/12/07 08:51:59;;;;;;;;;;;;;;;21.87;26.70;98009.84;5079051;28;1226;-74
2020/12/07 08:54:24;;;;;;;;;;;;;;;22.19;25.89;98008.97;5079104;28;1241;-74
2020/12/07 08:56:50;;;;;;;;;;;;;;;22.49;25.55;98011.31;5079212;28;1162;-75
2020/12/07 08:59:15;;;;;;;;;;;;;;;22.46;25.74;98002.91;5079708;28;1222;-73
2020/12/07 09:01:41;;;;;;;;;;;;;;;22.40;25.72;97999.81;5061893;28;1940;-74
2020/12/07 09:04:10;;;;;;;;;;;;;;;21.84;26.24;97994.50;5079306;28;1285;-73
2020/12/07 09:06:36;;;;;;;;;;;;;;;21.43;26.74;97981.06;5079489;28;1086;-75
2020/12/07 09:09:02;;;;;;;;;;;;;;;21.55;26.65;97983.97;5079116;28;1248;-73
2020/12/07 09:11:27;;;;;;;;;;;;;;;21.91;26.71;97976.53;5079312;28;1401;-74
2020/12/07 09:13:53;;;;;;;;;;;;;;;22.14;26.24;97967.78;5079710;28;1190;-76
2020/12/07 09:16:20;;;;;;;;;;;;;;;22.36;25.70;97971.56;5080326;28;1047;-73
2020/12/07 09:18:46;;;;;;;;;;;;;;;22.67;25.20;97967.41;5079132;28;1082;-75
2020/12/07 09:21:11;;;;;;;;;;;;;;;22.14;25.77;97950.78;5079474;28;1127;-76
2020/12/07 09:23:37;;;;;;;;;;;;;;;21.35;27.06;97938.00;5078854;28;1901;-75
2020/12/07 09:26:03;;;;;;;;;;;;;;;21.62;26.53;97943.34;5079522;28;1182;-76
2020/12/07 09:28:28;;;;;;;;;;;;;;;22.02;26.47;97943.00;5078971;28;1276;-74
2020/12/07 09:30:54;;;;;;;;;;;;;;;22.42;25.69;97942.66;5079338;28;1174;-76
2020/12/07 09:33:19;;;;;;;;;;;;;;;22.50;25.65;97946.88;5082519;28;1257;-75
2020/12/07 09:35:45;;;;;;;;;;;;;;;22.58;25.58;97948.22;5082649;28;1272;-74
2020/12/07 09:38:10;;;;;;;;;;;;;;;22.77;25.15;97941.53;5082882;28;899;-76
2020/12/07 09:40:36;;;;;;;;;;;;;;;22.12;26.05;97939.09;5083324;28;829;-76
2020/12/07 09:43:01;;;;;;;;;;;;;;;21.42;26.81;97934.97;5083226;28;1909;-76
2020/12/07 09:45:27;;;;;;;;;;;;;;;21.53;26.71;97943.19;5083270;28;607;-76
2020/12/07 09:47:53;;;;;;;;;;;;;;;21.64;26.84;97935.19;5082944;28;1064;-76
2020/12/07 09:50:18;;;;;;;;;;;;;;;22.15;26.18;97934.56;5065766;28;968;-75
2020/12/07 09:52:43;;;;;;;;;;;;;;;22.52;25.63;97930.19;5082917;28;835;-76
2020/12/07 09:55:09;;;;;;;;;;;;;;;22.60;25.37;97937.25;5083231;28;813;-76
2020/12/07 09:57:34;;;;;;;;;;;;;;;22.53;25.36;97937.44;5083113;28;610;-76
2020/12/07 10:00:00;;;;;;;;;;;;;;;21.65;26.81;97928.28;5082847;28;694;-73
2020/12/07 10:02:25;;;;;;;;;;;;;;;21.73;26.41;97932.50;5083065;28;1975;-68
2020/12/07 10:04:51;;;;;;;;;;;;;;;21.49;27.08;97929.13;5082863;28;918;-75
2020/12/07 10:07:16;;;;;;;;;;;;;;;21.52;27.22;97931.06;5082936;28;923;-76
2020/12/07 10:09:42;;;;;;;;;;;;;;;22.02;26.18;97923.16;5065285;28;951;-76
2020/12/07 10:12:07;;;;;;;;;;;;;;;22.35;25.80;97921.78;5082938;28;654;-75
2020/12/07 10:14:33;;;;;;;;;;;;;;;22.48;25.67;97923.84;5082666;28;669;-76
2020/12/07 10:16:58;;;;;;;;;;;;;;;22.41;25.61;97915.56;5083007;28;647;-76
2020/12/07 10:19:24;;;;;;;;;;;;;;;21.88;26.74;97915.13;5082338;28;974;-76
2020/12/07 10:21:50;;;;;;;;;;;;;;;21.46;27.08;97906.59;5082542;28;1922;-75
2020/12/07 10:24:15;;;;;;;;;;;;;;;21.49;27.12;97902.84;5082608;28;807;-76
2020/12/07 10:26:41;;;;;;;;;;;;;;;21.88;26.75;97903.78;5082722;28;639;-75
2020/12/07 10:29:06;;;;;;;;;;;;;;;22.29;26.20;97900.94;5081972;28;681;-75
2020/12/07 10:31:32;;;;;;;;;;;;;;;22.60;25.70;97904.00;5082441;28;703;-75
2020/12/07 10:33:57;;;;;;;;;;;;;;;22.83;25.35;97905.69;5064522;28;933;-76
2020/12/07 10:36:24;;;;;;;;;;;;;;;21.32;27.52;97914.22;5082236;28;790;-76
2020/12/07 10:38:50;;;;;;;;;;;;;;;21.57;26.97;97901.41;5082149;28;920;-75
2020/12/07 10:41:15;;;;;;;;;;;;;;;21.53;27.26;97897.88;5082617;28;725;-76
2020/12/07 10:43:41;;;;;;;;;;;;;;;22.26;26.09;97901.81;5081470;28;1963;-76
2020/12/07 10:46:06;;;;;;;;;;;;;;;22.61;25.92;97899.13;5082403;28;853;-75
2020/12/07 10:48:32;;;;;;;;;;;;;;;22.51;25.84;97900.25;5064095;28;1119;-76
2020/12/07 10:50:57;;;;;;;;;;;;;;;22.59;25.85;97904.47;5082128;28;890;-75
2020/12/07 10:53:26;;;;;;;;;;;;;;;21.87;26.77;97893.69;5081769;28;980;-75
2020/12/07 10:55:52;;;;;;;;;;;;;;;21.54;27.18;97896.63;5082421;28;606;-76
2020/12/07 10:58:18;;;;;;;;;;;;;;;21.50;27.30;97893.94;5081774;28;705;-75
2020/12/07 11:00:43;;;;;;;;;;;;;;;21.72;27.31;97891.28;5082399;28;669;-76
2020/12/07 11:03:09;;;;;;;;;;;;;;;22.04;26.69;97893.16;5081174;28;1910;-76
2020/12/07 11:05:36;;;;;;;;;;;;;;;22.42;26.07;97894.47;5081460;28;943;-76
2020/12/07 11:08:02;;;;;;;;;;;;;;;22.42;26.02;97894.47;5081661;28;1025;-76
2020/12/07 11:10:28;;;;;;;;;;;;;;;22.47;25.79;97885.41;5081842;28;579;-76
2020/12/07 11:13:00;;;;;;;;;;;;;;;21.85;26.73;97883.59;5081559;28;662;-76
2020/12/07 11:15:26;;;;;;;;;;;;;;;21.83;26.83;97891.75;5081682;28;622;-76
2020/12/07 11:17:52;;;;;;;;;;;;;;;21.49;27.36;97888.69;5080916;28;886;-75
2020/12/07 11:20:17;;;;;;;;;;;;;;;21.99;26.86;97890.09;5081298;28;941;-76
2020/12/07 11:22:43;;;;;;;;;;;;;;;22.32;26.19;97887.88;5081213;28;1906;-75
2020/12/07 11:25:08;;;;;;;;;;;;;;;22.49;25.89;97885.75;5081211;28;671;-75
2020/12/07 11:27:33;;;;;;;;;;;;;;;22.44;25.73;97884.28;5081307;28;630;-76
2020/12/07 11:29:59;;;;;;;;;;;;;;;21.98;26.18;97882.84;5081115;28;655;-75
2020/12/07 11:32:24;;;;;;;;;;;;;;;21.65;26.55;97880.13;5080840;28;905;-76
2020/12/07 11:34:50;;;;;;;;;;;;;;;21.43;27.31;97879.16;5080688;28;844;-76
2020/12/07 11:37:15;;;;;;;;;;;;;;;22.15;26.47;97881.53;5081309;28;952;-75
2020/12/07 11:39:56;;;;;;;;;;;;;;;22.35;26.05;97876.44;5080947;28;718;-75
2020/12/07 11:42:39;;;;;;;;;;;;;;;22.58;25.46;97863.94;5081211;28;1906;-75
2020/12/07 11:45:04;;;;;;;;;;;;;;;22.66;25.49;97873.03;5080639;28;658;-76
2020/12/07 11:47:30;;;;;;;;;;;;;;;21.91;26.44;97868.88;5080706;28;1041;-76
2020/12/07 11:49:55;;;;;;;;;;;;;;;21.69;26.74;97869.50;5080620;28;890;-75
2020/12/07 11:52:20;;;;;;;;;;;;;;;21.63;26.89;97871.31;5080923;28;838;-75
2020/12/07 11:54:46;;;;;;;;;;;;;;;21.89;26.96;97862.88;5080010;28;618;-76
2020/12/07 11:57:11;;;;;;;;;;;;;;;22.24;26.28;97876.00;5080916;28;638;-75
2020/12/07 11:59:38;;;;;;;;;;;;;;;22.57;25.89;97881.44;5080703;28;658;-75
2020/12/07 12:02:04;;;;;;;;;;;;;;;22.69;25.33;97877.81;5080629;28;1906;-76
2020/12/07 12:04:29;;;;;;;;;;;;;;;22.29;25.86;97883.94;5080375;28;801;-75
2020/12/07 12:06:55;;;;;;;;;;;;;;;21.55;26.67;97881.22;5080898;28;916;-75
2020/12/07 12:09:20;;;;;;;;;;;;;;;21.54;27.15;97876.81;5080535;28;650;-76
2020/12/07 12:11:45;;;;;;;;;;;;;;;21.74;27.11;97871.78;5080909;28;611;-75
2020/12/07 12:14:11;;;;;;;;;;;;;;;22.09;26.55;97877.66;5080534;28;649;-76
2020/12/07 12:16:38;;;;;;;;;;;;;;;22.42;26.02;97872.56;5080374;28;1011;-76
2020/12/07 12:19:05;;;;;;;;;;;;;;;22.41;25.97;97873.03;5080296;28;914;-76
2020/12/07 12:21:30;;;;;;;;;;;;;;;22.55;25.56;97855.56;5080356;28;1967;-75
2020/12/07 12:23:56;;;;;;;;;;;;;;;22.04;26.39;97864.03;5080601;28;708;-76
2020/12/07 12:26:22;;;;;;;;;;;;;;;21.58;26.70;97866.19;5080860;28;741;-75
2020/12/07 12:28:50;;;;;;;;;;;;;;;21.49;26.92;97866.84;5080332;28;739;-76
2020/12/07 12:31:16;;;;;;;;;;;;;;;21.68;27.53;97867.13;5080321;28;888;-75
2020/12/07 12:33:44;;;;;;;;;;;;;;;22.40;26.23;97877.13;5080075;28;897;-76
2020/12/07 12:36:14;;;;;;;;;;;;;;;22.67;25.45;97885.16;5063928;28;838;-76
2020/12/07 12:38:39;;;;;;;;;;;;;;;22.70;25.57;97879.38;5080059;28;705;-76
2020/12/07 12:41:05;;;;;;;;;;;;;;;22.15;26.31;97895.69;5080969;28;671;-76
2020/12/07 12:43:31;;;;;;;;;;;;;;;21.78;26.69;97888.69;5080342;28;1971;-76
2020/12/07 12:45:56;;;;;;;;;;;;;;;21.46;27.28;97889.59;5080298;28;1078;-76
2020/12/07 12:48:22;;;;;;;;;;;;;;;21.85;26.69;97886.44;5079467;28;1027;-75
2020/12/07 12:50:47;;;;;;;;;;;;;;;22.39;26.09;97882.00;5080051;28;846;-74
2020/12/07 12:53:12;;;;;;;;;;;;;;;22.61;25.63;97887.78;5080141;28;695;-75
2020/12/07 12:55:38;;;;;;;;;;;;;;;22.62;25.62;97884.47;5080066;28;717;-76
2020/12/07 12:58:03;;;;;;;;;;;;;;;22.40;25.35;97882.81;5079985;28;714;-75
2020/12/07 13:00:31;;;;;;;;;;;;;;;21.19;27.52;97893.53;5080013;28;995;-76
2020/12/07 13:02:56;;;;;;;;;;;;;;;21.40;27.05;97885.69;5079719;28;1905;-76
2020/12/07 13:05:22;;;;;;;;;;;;;;;21.36;27.20;97882.19;5062992;28;875;-76
2020/12/07 13:07:47;;;;;;;;;;;;;;;21.88;26.87;97886.78;5083522;28;669;-74
2020/12/07 13:10:13;;;;;;;;;;;;;;;22.44;25.97;97884.28;5083754;28;649;-75
2020/12/07 13:12:38;;;;;;;;;;;;;;;22.52;25.84;97896.97;5083696;28;649;-74
2020/12/07 13:15:04;;;;;;;;;;;;;;;22.78;25.19;97883.56;5083148;28;1091;-74
2020/12/07 13:17:33;;;;;;;;;;;;;;;22.04;25.84;97889.53;5083037;28;1044;-75
2020/12/07 13:20:03;;;;;;;;;;;;;;;21.58;26.78;97886.00;5082963;28;1189;-75
2020/12/07 13:22:39;;;;;;;;;;;;;;;21.62;26.78;97877.44;5082799;28;1973;-74
2020/12/07 13:25:11;;;;;;;;;;;;;;;22.01;26.50;97877.06;5083015;28;1173;-75